Time;durP1;ratioP1;P1;durP2;ratioP2;P2;SDS_P1;SDS_P2;PMS_P1;PMS_P2;Temp;Humidity;BMP_temperature;BMP_pressure;BME280_temperature;BME280_humidity;BME280_pressure;Samples;Min_cycle;Max_cycle;Signal;HPM_P1;HPM_P2
2022/11/18 00:01:16;;;;;;;38.65;22.70;;;8.60;99.90;;;;;;4792295;29;20081;-71
2022/11/18 00:03:42;;;;;;;37.72;22.38;;;8.40;99.90;;;;;;4792013;29;20046;-71
2022/11/18 00:06:13;;;;;;;37.13;21.85;;;8.40;99.90;;;;;;4791815;29;20571;-71
2022/11/18 00:08:39;;;;;;;41.60;23.88;;;8.40;99.90;;;;;;4791363;30;20319;-71
2022/11/18 00:11:07;;;;;;;41.90;24.20;;;8.50;99.90;;;;;;4791103;30;20062;-71
2022/11/18 00:16:17;;;;;;;35.90;21.02;;;8.50;99.90;;;;;;4791663;29;20453;-71
2022/11/18 00:18:43;;;;;;;41.50;23.08;;;8.50;99.90;;;;;;4791476;29;20043;-71
2022/11/18 00:21:10;;;;;;;34.03;19.92;;;8.60;99.90;;;;;;4791938;30;20047;-71
2022/11/18 00:23:37;;;;;;;39.92;21.98;;;8.60;99.90;;;;;;4791403;29;20051;-71
2022/11/18 00:26:04;;;;;;;42.47;22.42;;;8.70;99.90;;;;;;4791705;29;20050;-71
2022/11/18 00:28:31;;;;;;;34.67;19.50;;;8.70;99.90;;;;;;4791423;29;20035;-71
2022/11/18 00:31:05;;;;;;;34.10;21.50;;;8.50;99.90;;;;;;4791510;29;20095;-70
2022/11/18 00:33:31;;;;;;;37.70;21.83;;;8.50;99.90;;;;;;4791491;29;20051;-71
2022/11/18 00:35:57;;;;;;;33.80;19.48;;;8.50;99.90;;;;;;4790448;30;20054;-71
2022/11/18 00:38:23;;;;;;;34.40;21.88;;;8.30;99.90;;;;;;4791308;29;20050;-71
2022/11/18 00:40:57;;;;;;;35.10;20.48;;;8.40;99.90;;;;;;4789894;29;20112;-71
2022/11/18 00:43:22;;;;;;;36.88;22.13;;;8.40;99.90;;;;;;4790523;30;20358;-71
2022/11/18 00:45:48;;;;;;;40.35;23.42;;;8.30;99.90;;;;;;4790321;30;20039;-71
2022/11/18 00:48:13;;;;;;;39.55;22.02;;;8.30;99.90;;;;;;4791515;30;20150;-71
2022/11/18 00:50:39;;;;;;;35.08;20.67;;;8.30;99.90;;;;;;4791332;29;20047;-71
2022/11/18 00:53:05;;;;;;;37.22;20.75;;;8.30;99.90;;;;;;4790527;30;20066;-71
2022/11/18 00:55:30;;;;;;;35.67;21.27;;;8.50;99.90;;;;;;4790049;30;20404;-71
2022/11/18 00:57:56;;;;;;;44.13;23.70;;;8.50;99.90;;;;;;4791420;29;20100;-70
2022/11/18 01:00:22;;;;;;;41.55;23.58;;;8.50;99.90;;;;;;4791003;30;20335;-71
2022/11/18 01:02:47;;;;;;;38.10;22.42;;;8.40;99.90;;;;;;4791107;30;20487;-71
2022/11/18 01:05:13;;;;;;;40.38;23.00;;;8.50;99.90;;;;;;4790249;30;20081;-71
2022/11/18 01:07:39;;;;;;;34.70;21.15;;;8.50;99.90;;;;;;4790065;30;20047;-71
2022/11/18 01:10:04;;;;;;;41.03;22.20;;;8.50;99.90;;;;;;4790142;30;20078;-71
2022/11/18 01:15:14;;;;;;;40.75;21.95;;;8.40;99.90;;;;;;4790966;29;20130;-71
2022/11/18 01:17:40;;;;;;;39.00;20.40;;;8.40;99.90;;;;;;4791222;29;20118;-71
2022/11/18 01:20:06;;;;;;;41.92;22.55;;;8.30;99.90;;;;;;4791220;30;20081;-71
2022/11/18 01:22:32;;;;;;;45.17;23.27;;;8.30;99.90;;;;;;4791050;30;20139;-71
2022/11/18 01:24:57;;;;;;;49.45;23.83;;;8.30;99.90;;;;;;4790941;29;20114;-70
2022/11/18 01:27:23;;;;;;;43.22;21.27;;;8.40;99.90;;;;;;4790955;30;20108;-70
2022/11/18 01:29:48;;;;;;;38.70;21.58;;;8.30;99.90;;;;;;4790839;30;20051;-70
2022/11/18 01:32:14;;;;;;;39.08;20.05;;;8.40;99.90;;;;;;4790769;29;20067;-70
2022/11/18 01:34:40;;;;;;;38.88;21.02;;;8.30;99.90;;;;;;4790788;29;20043;-71
2022/11/18 01:37:05;;;;;;;49.00;22.88;;;8.40;99.90;;;;;;4790953;30;20050;-71
2022/11/18 01:39:31;;;;;;;37.60;21.10;;;8.40;99.90;;;;;;4790911;29;20044;-70
2022/11/18 01:41:57;;;;;;;39.17;21.55;;;8.50;99.90;;;;;;4790943;29;20047;-71
2022/11/18 01:45:00;;;;;;;37.45;20.90;;;8.60;99.90;;;;;;4790714;30;20055;-71
2022/11/18 01:47:33;;;;;;;35.72;19.67;;;8.60;99.90;;;;;;4790880;29;20387;-71
2022/11/18 01:50:00;;;;;;;47.55;23.20;;;8.60;99.90;;;;;;4790961;29;20047;-71
2022/11/18 01:52:26;;;;;;;36.33;20.13;;;8.50;99.90;;;;;;4793805;29;20350;-71
2022/11/18 01:54:56;;;;;;;44.45;20.65;;;8.50;99.90;;;;;;4793745;29;20047;-71
2022/11/18 01:57:26;;;;;;;38.20;20.88;;;8.60;99.90;;;;;;4793218;30;20051;-71
2022/11/18 01:59:56;;;;;;;40.10;20.45;;;8.50;99.90;;;;;;4794430;29;20047;-71
2022/11/18 02:02:23;;;;;;;39.65;21.05;;;8.50;99.90;;;;;;4794326;29;20176;-71
2022/11/18 02:04:51;;;;;;;47.70;23.02;;;8.50;99.90;;;;;;4794184;29;20043;-71
2022/11/18 02:07:19;;;;;;;46.65;21.70;;;8.50;99.90;;;;;;4793896;30;20138;-71
2022/11/18 02:09:46;;;;;;;40.92;20.45;;;8.60;99.90;;;;;;4794152;30;20338;-71
2022/11/18 02:12:12;;;;;;;39.22;20.00;;;8.60;99.90;;;;;;4793974;30;20054;-71
2022/11/18 02:14:42;;;;;;;34.25;19.30;;;8.70;99.90;;;;;;4793853;30;20054;-71
2022/11/18 02:17:23;;;;;;;37.72;20.90;;;8.60;99.90;;;;;;4792671;30;20084;-70
2022/11/18 02:20:08;;;;;;;39.42;21.40;;;8.60;99.90;;;;;;4792582;30;20055;-71
2022/11/18 02:22:56;;;;;;;42.50;22.20;;;8.50;99.90;;;;;;4793920;30;20335;-71
2022/11/18 02:25:25;;;;;;;44.55;22.83;;;8.60;99.90;;;;;;4793493;29;20052;-71
2022/11/18 02:28:09;;;;;;;46.08;22.15;;;8.50;99.90;;;;;;4792926;30;20051;-70
2022/11/18 02:30:55;;;;;;;36.72;20.67;;;8.40;99.90;;;;;;4793176;29;20150;-71
2022/11/18 02:33:30;;;;;;;48.75;23.15;;;8.40;99.90;;;;;;4793723;29;20059;-71
2022/11/18 02:36:05;;;;;;;38.13;20.73;;;8.50;99.90;;;;;;4793463;29;20054;-71
2022/11/18 02:38:37;;;;;;;44.28;22.55;;;8.50;99.90;;;;;;4793418;29;20059;-71
2022/11/18 02:41:10;;;;;;;49.33;24.20;;;8.50;99.90;;;;;;4793717;29;20043;-70
2022/11/18 02:43:45;;;;;;;40.78;21.30;;;8.40;99.90;;;;;;4793397;29;20039;-70
2022/11/18 02:46:14;;;;;;;45.45;21.88;;;8.20;99.90;;;;;;4792261;30;20047;-71
2022/11/18 02:48:46;;;;;;;49.03;24.35;;;8.20;99.90;;;;;;4793503;29;20047;-70
2022/11/18 02:51:17;;;;;;;42.13;21.08;;;8.40;99.90;;;;;;4793113;29;20109;-70
2022/11/18 02:53:46;;;;;;;45.28;22.88;;;8.30;99.90;;;;;;4792944;29;20054;-71
2022/11/18 02:56:12;;;;;;;50.97;24.23;;;8.40;99.90;;;;;;4793276;30;20110;-70
2022/11/18 02:58:38;;;;;;;43.08;21.42;;;8.50;99.90;;;;;;4793220;29;20055;-71
2022/11/18 03:01:04;;;;;;;38.45;20.27;;;8.50;99.90;;;;;;4793104;30;20049;-71
2022/11/18 03:03:32;;;;;;;42.45;20.85;;;8.40;99.90;;;;;;4792203;29;20043;-70
2022/11/18 03:06:05;;;;;;;50.90;23.00;;;8.40;99.90;;;;;;4794141;29;20043;-71
2022/11/18 03:08:41;;;;;;;36.97;20.77;;;8.50;99.90;;;;;;4792870;29;20130;-70
2022/11/18 03:11:21;;;;;;;44.13;21.65;;;8.20;99.90;;;;;;4793104;29;20044;-71
2022/11/18 03:13:58;;;;;;;44.22;20.80;;;8.30;99.90;;;;;;4792830;29;20050;-71
2022/11/18 03:16:34;;;;;;;42.10;21.42;;;8.10;99.90;;;;;;4792788;30;20079;-71
2022/11/18 03:19:12;;;;;;;36.40;20.00;;;8.10;99.90;;;;;;4792976;30;20047;-71
2022/11/18 03:21:50;;;;;;;43.53;22.27;;;8.10;99.90;;;;;;4792746;30;20335;-71
2022/11/18 03:24:23;;;;;;;45.15;20.92;;;8.00;99.90;;;;;;4792475;29;20042;-71
2022/11/18 03:26:54;;;;;;;43.38;21.30;;;8.00;99.90;;;;;;4776795;30;20058;-70
2022/11/18 03:29:22;;;;;;;50.63;22.35;;;8.00;99.90;;;;;;4791730;30;20051;-71
2022/11/18 03:31:49;;;;;;;50.83;23.27;;;8.00;99.90;;;;;;4792419;30;20103;-71
2022/11/18 03:34:27;;;;;;;48.10;22.55;;;8.10;99.90;;;;;;4792638;30;20047;-71
2022/11/18 03:36:59;;;;;;;43.50;21.75;;;8.10;99.90;;;;;;4792197;30;20469;-71
2022/11/18 03:39:27;;;;;;;38.92;20.92;;;8.10;99.90;;;;;;4792434;29;20139;-71
2022/11/18 03:42:00;;;;;;;38.63;20.38;;;8.00;99.90;;;;;;4792308;30;20043;-70
2022/11/18 03:44:31;;;;;;;39.00;19.67;;;8.10;99.90;;;;;;4791272;30;20047;-71
2022/11/18 03:47:13;;;;;;;44.97;19.95;;;8.00;99.90;;;;;;4791259;30;20123;-71
2022/11/18 03:50:23;;;;;;;32.70;17.15;;;8.00;99.90;;;;;;4792484;29;20051;-71
2022/11/18 03:52:50;;;;;;;29.73;16.33;;;7.90;99.90;;;;;;4792240;29;20047;-71
2022/11/18 03:55:23;;;;;;;31.50;16.58;;;8.00;99.90;;;;;;4791867;29;20083;-70
2022/11/18 03:58:17;;;;;;;30.25;17.13;;;8.00;99.90;;;;;;4792057;30;20061;-71
2022/11/18 04:00:47;;;;;;;31.83;16.95;;;8.00;99.90;;;;;;4788426;30;20339;-71
2022/11/18 04:03:13;;;;;;;31.50;16.80;;;8.00;99.90;;;;;;4792000;29;20051;-70
2022/11/18 04:05:41;;;;;;;31.10;16.67;;;8.10;99.90;;;;;;4792131;30;20049;-71
2022/11/18 04:08:17;;;;;;;29.58;16.60;;;8.10;99.90;;;;;;4791880;30;20090;-71
2022/11/18 04:10:59;;;;;;;28.73;16.13;;;8.10;99.90;;;;;;4791892;29;20043;-70
2022/11/18 04:13:29;;;;;;;33.28;17.38;;;8.00;99.90;;;;;;4792065;29;20051;-71
2022/11/18 04:15:55;;;;;;;30.02;17.10;;;8.10;99.90;;;;;;4791107;29;20118;-70
2022/11/18 04:18:21;;;;;;;37.33;17.15;;;8.20;99.90;;;;;;4790797;30;20044;-71
2022/11/18 04:20:46;;;;;;;34.25;17.45;;;8.20;99.90;;;;;;4791493;30;20055;-71
2022/11/18 04:23:12;;;;;;;34.00;16.52;;;8.10;99.90;;;;;;4791539;29;20055;-71
2022/11/18 04:25:38;;;;;;;34.15;16.90;;;8.00;99.90;;;;;;4791651;29;20079;-71
2022/11/18 04:28:04;;;;;;;34.25;16.90;;;8.10;99.90;;;;;;4790493;30;20453;-70
2022/11/18 04:30:30;;;;;;;27.08;15.05;;;8.20;99.90;;;;;;4790620;30;20131;-71
2022/11/18 04:32:56;;;;;;;26.42;15.77;;;8.20;99.90;;;;;;4791626;29;20497;-70
2022/11/18 04:35:22;;;;;;;27.75;15.23;;;8.10;99.90;;;;;;4791457;30;20219;-71
2022/11/18 04:37:47;;;;;;;26.77;14.57;;;8.20;99.90;;;;;;4791405;30;20194;-70
2022/11/18 04:40:13;;;;;;;25.80;15.43;;;8.20;99.90;;;;;;4791650;29;20430;-71
2022/11/18 04:42:39;;;;;;;28.80;14.80;;;8.00;99.90;;;;;;4791400;29;20039;-70
2022/11/18 04:45:05;;;;;;;29.13;15.60;;;8.00;99.90;;;;;;4791493;29;20070;-73
2022/11/18 04:47:31;;;;;;;28.92;15.38;;;8.10;99.90;;;;;;4790301;30;20438;-70
2022/11/18 04:49:57;;;;;;;27.55;15.77;;;8.20;99.90;;;;;;4791404;30;20051;-71
2022/11/18 04:52:23;;;;;;;26.77;15.40;;;8.20;99.90;;;;;;4791602;29;20412;-71
2022/11/18 04:54:48;;;;;;;29.52;15.90;;;8.20;99.90;;;;;;4790891;29;20051;-70
2022/11/18 04:57:14;;;;;;;26.88;14.48;;;8.10;99.90;;;;;;4790310;30;20047;-71
2022/11/18 04:59:40;;;;;;;28.02;15.50;;;8.10;99.90;;;;;;4791150;29;20047;-71
2022/11/18 05:02:06;;;;;;;26.08;13.50;;;8.20;99.90;;;;;;4790665;30;20047;-71
2022/11/18 05:04:33;;;;;;;30.48;16.00;;;8.20;99.90;;;;;;4791056;29;20383;-71
2022/11/18 05:07:00;;;;;;;29.10;15.70;;;8.30;99.90;;;;;;4791434;29;20071;-71
2022/11/18 05:09:27;;;;;;;26.35;14.90;;;8.20;99.90;;;;;;4791070;30;20102;-71
2022/11/18 05:14:37;;;;;;;27.45;14.77;;;8.30;99.90;;;;;;4791400;29;20346;-72
2022/11/18 05:17:06;;;;;;;24.40;13.85;;;8.20;99.90;;;;;;4791124;29;20048;-71
2022/11/18 05:19:31;;;;;;;31.75;15.23;;;8.20;99.90;;;;;;4791009;29;20050;-71
2022/11/18 05:21:57;;;;;;;30.05;14.25;;;8.20;99.90;;;;;;4791221;29;20040;-71
2022/11/18 05:24:23;;;;;;;25.13;15.13;;;8.30;99.90;;;;;;4789763;30;20342;-70
2022/11/18 05:26:50;;;;;;;35.60;17.00;;;8.40;99.90;;;;;;4793081;29;20338;-70
2022/11/18 05:29:18;;;;;;;26.52;14.50;;;8.30;99.90;;;;;;4794585;29;20118;-71
2022/11/18 05:31:44;;;;;;;32.15;16.55;;;8.30;99.90;;;;;;4794343;29;20111;-71
2022/11/18 05:34:10;;;;;;;26.52;14.65;;;8.20;99.90;;;;;;4794457;29;20453;-70
2022/11/18 05:36:35;;;;;;;33.60;15.75;;;8.20;99.90;;;;;;4794699;29;20043;-70
2022/11/18 05:39:01;;;;;;;28.23;15.65;;;8.30;99.90;;;;;;4793583;30;20078;-70
2022/11/18 05:44:11;;;;;;;40.55;16.05;;;8.20;99.90;;;;;;4794272;29;20047;-71
2022/11/18 05:46:37;;;;;;;36.72;16.33;;;8.30;99.90;;;;;;4794445;30;20035;-71
2022/11/18 05:49:03;;;;;;;31.08;15.63;;;8.20;99.90;;;;;;4794305;29;20434;-71
2022/11/18 05:51:28;;;;;;;38.47;18.08;;;8.20;99.90;;;;;;4794245;29;20043;-70
2022/11/18 05:53:55;;;;;;;37.45;16.67;;;8.10;99.90;;;;;;4794146;29;20047;-70
2022/11/18 05:56:28;;;;;;;39.95;17.60;;;8.10;99.90;;;;;;4794168;30;20459;-71
2022/11/18 05:58:54;;;;;;;34.20;16.83;;;8.10;99.90;;;;;;4794036;30;20438;-70
2022/11/18 06:01:45;;;;;;;31.02;15.65;;;8.00;99.90;;;;;;4794247;29;20041;-70
2022/11/18 06:04:17;;;;;;;36.40;17.33;;;8.00;99.90;;;;;;4793261;30;20048;-70
2022/11/18 06:06:44;;;;;;;36.70;16.98;;;8.00;99.90;;;;;;4794304;29;20401;-70
2022/11/18 06:09:11;;;;;;;29.50;14.90;;;7.90;99.90;;;;;;4793238;30;20121;-71
2022/11/18 06:11:42;;;;;;;42.08;18.33;;;7.80;99.90;;;;;;4793900;29;20448;-70
2022/11/18 06:14:19;;;;;;;45.60;19.38;;;7.70;99.90;;;;;;4793118;30;20051;-71
2022/11/18 06:16:50;;;;;;;33.28;16.13;;;7.80;99.90;;;;;;4794130;30;20058;-70
2022/11/18 06:19:16;;;;;;;44.17;18.70;;;7.70;99.90;;;;;;4793762;29;20051;-70
2022/11/18 06:21:43;;;;;;;42.92;18.42;;;7.60;99.90;;;;;;4793824;30;20071;-71
2022/11/18 06:24:10;;;;;;;47.90;19.38;;;7.60;99.90;;;;;;4793534;30;20073;-71
2022/11/18 06:26:36;;;;;;;41.03;16.80;;;7.70;99.90;;;;;;4793722;29;20108;-71
2022/11/18 06:29:03;;;;;;;44.28;19.80;;;7.70;99.90;;;;;;4793718;29;20043;-70
2022/11/18 06:31:29;;;;;;;38.30;17.45;;;7.80;99.90;;;;;;4777417;30;20055;-70
2022/11/18 06:33:55;;;;;;;40.42;17.65;;;7.70;99.90;;;;;;4793641;29;20116;-70
2022/11/18 06:36:21;;;;;;;44.35;18.63;;;7.80;99.90;;;;;;4793351;29;20047;-71
2022/11/18 06:38:46;;;;;;;36.65;17.63;;;8.00;99.90;;;;;;4792608;29;20051;-71
2022/11/18 06:41:12;;;;;;;53.72;19.17;;;7.80;99.90;;;;;;4793562;30;20058;-70
2022/11/18 06:43:38;;;;;;;41.53;19.67;;;7.80;99.90;;;;;;4793445;30;20047;-70
2022/11/18 06:48:49;;;;;;;48.27;19.27;;;7.90;99.90;;;;;;4793427;29;20103;-71
2022/11/18 06:51:15;;;;;;;46.92;19.42;;;7.90;99.90;;;;;;4792430;30;20065;-71
2022/11/18 06:53:41;;;;;;;49.80;19.60;;;8.00;99.90;;;;;;4792089;30;20168;-71
2022/11/18 06:56:09;;;;;;;48.40;18.88;;;8.00;99.90;;;;;;4793076;30;20453;-70
2022/11/18 06:58:35;;;;;;;39.35;17.75;;;7.90;99.90;;;;;;4793050;29;20319;-70
2022/11/18 07:01:16;;;;;;;49.95;19.48;;;7.80;99.90;;;;;;4793125;29;20050;-70
2022/11/18 07:03:43;;;;;;;49.70;19.48;;;7.70;99.90;;;;;;4793217;29;20118;-71
2022/11/18 07:06:10;;;;;;;42.20;19.20;;;7.60;99.90;;;;;;4793194;29;20043;-70
2022/11/18 07:08:38;;;;;;;44.72;20.60;;;7.60;99.90;;;;;;4791777;30;20050;-71
2022/11/18 07:11:05;;;;;;;47.35;19.05;;;7.70;99.90;;;;;;4791945;30;20101;-71
2022/11/18 07:13:32;;;;;;;52.42;21.08;;;7.70;99.90;;;;;;4792889;30;20051;-70
2022/11/18 07:16:05;;;;;;;45.88;18.17;;;7.70;99.90;;;;;;4792649;29;20079;-72
2022/11/18 07:18:40;;;;;;;45.63;19.25;;;7.70;99.90;;;;;;4792774;29;20438;-71
2022/11/18 07:21:10;;;;;;;48.30;18.73;;;7.70;99.90;;;;;;4792961;29;20043;-71
2022/11/18 07:23:36;;;;;;;54.50;19.35;;;7.70;99.90;;;;;;4792914;30;20043;-71
2022/11/18 07:26:01;;;;;;;47.25;19.83;;;7.70;99.90;;;;;;4792400;29;20047;-70
2022/11/18 07:28:28;;;;;;;39.15;15.95;;;7.50;99.90;;;;;;4792482;30;20043;-71
2022/11/18 07:31:04;;;;;;;42.67;16.45;;;7.50;99.90;;;;;;4791612;30;20047;-71
2022/11/18 07:33:31;;;;;;;40.38;16.55;;;7.50;99.90;;;;;;4792749;30;20055;-70
2022/11/18 07:36:09;;;;;;;43.28;17.70;;;7.50;99.90;;;;;;4792465;29;20097;-70
2022/11/18 07:38:35;;;;;;;41.20;16.80;;;7.50;99.90;;;;;;4791397;30;20047;-71
2022/11/18 07:41:07;;;;;;;38.38;17.00;;;7.40;99.90;;;;;;4791373;30;20049;-71
2022/11/18 07:43:34;;;;;;;37.47;15.70;;;7.40;99.90;;;;;;4792355;29;20055;-70
2022/11/18 07:46:15;;;;;;;38.97;17.13;;;7.40;99.90;;;;;;4792471;29;20401;-71
2022/11/18 07:48:42;;;;;;;38.70;16.08;;;7.50;99.90;;;;;;4806443;29;20039;-71
2022/11/18 07:51:08;;;;;;;36.58;15.30;;;7.60;99.90;;;;;;4792306;29;20304;-71
2022/11/18 07:53:35;;;;;;;40.05;15.50;;;7.50;99.90;;;;;;4792334;29;20122;-71
2022/11/18 07:56:01;;;;;;;35.15;14.77;;;7.50;99.90;;;;;;4791971;30;20043;-70
2022/11/18 07:58:27;;;;;;;34.20;15.52;;;7.50;99.90;;;;;;4792393;29;20081;-70
2022/11/18 08:00:53;;;;;;;33.35;15.23;;;7.50;99.90;;;;;;4775965;30;20521;-71
2022/11/18 08:03:19;;;;;;;35.85;16.13;;;7.40;99.90;;;;;;4791993;30;20122;-70
2022/11/18 08:05:44;;;;;;;39.67;15.70;;;7.50;99.90;;;;;;4791906;30;20085;-70
2022/11/18 08:08:10;;;;;;;40.15;16.50;;;7.50;99.90;;;;;;4791829;30;20047;-71
2022/11/18 08:10:36;;;;;;;32.38;14.30;;;7.60;99.90;;;;;;4791734;29;20100;-71
2022/11/18 08:13:02;;;;;;;27.35;13.73;;;7.70;99.90;;;;;;4763196;30;20241;-71
2022/11/18 08:15:28;;;;;;;28.52;13.68;;;7.80;99.90;;;;;;4772931;30;20443;-71
2022/11/18 08:17:54;;;;;;;27.67;13.85;;;7.70;99.90;;;;;;4772903;30;20051;-70
2022/11/18 08:20:19;;;;;;;27.73;14.05;;;7.70;99.90;;;;;;4772734;30;20047;-70
2022/11/18 08:22:45;;;;;;;38.53;14.35;;;7.70;99.90;;;;;;4773764;30;20046;-71
2022/11/18 08:25:10;;;;;;;31.67;13.77;;;7.70;99.90;;;;;;4772910;30;20047;-70
2022/11/18 08:27:36;;;;;;;29.30;13.80;;;7.80;99.90;;;;;;4773004;30;20070;-70
2022/11/18 08:30:02;;;;;;;24.85;12.63;;;7.90;99.90;;;;;;4773875;30;20395;-71
2022/11/18 08:32:28;;;;;;;28.25;12.98;;;7.80;99.90;;;;;;4779196;30;20056;-70
2022/11/18 08:34:54;;;;;;;25.58;12.82;;;7.70;99.90;;;;;;4779265;30;20106;-71
2022/11/18 08:37:20;;;;;;;25.85;12.95;;;7.70;99.90;;;;;;4787256;30;20039;-71
2022/11/18 08:39:45;;;;;;;24.83;12.70;;;7.60;99.90;;;;;;4790542;30;20050;-71
2022/11/18 08:42:11;;;;;;;28.63;13.48;;;7.60;99.90;;;;;;4791711;29;20043;-70
2022/11/18 08:44:37;;;;;;;35.13;14.23;;;7.60;99.90;;;;;;4791217;29;20044;-70
2022/11/18 08:47:02;;;;;;;31.45;13.40;;;7.80;99.90;;;;;;4790555;30;20055;-70
2022/11/18 08:49:28;;;;;;;31.05;13.80;;;7.80;99.90;;;;;;4791355;29;20043;-69
2022/11/18 08:51:54;;;;;;;24.92;12.52;;;7.70;99.90;;;;;;4791282;29;20047;-68
2022/11/18 08:54:19;;;;;;;34.50;15.48;;;7.70;99.90;;;;;;4789941;30;20051;-68
2022/11/18 08:56:45;;;;;;;36.63;15.18;;;7.90;99.90;;;;;;4790235;30;20056;-69
2022/11/18 08:59:11;;;;;;;33.17;15.13;;;7.90;99.90;;;;;;4790270;30;20063;-72
2022/11/18 09:01:37;;;;;;;32.60;14.88;;;7.90;99.90;;;;;;4790319;30;20047;-69
2022/11/18 09:04:03;;;;;;;27.90;12.25;;;7.90;99.90;;;;;;4791231;29;20059;-69
2022/11/18 09:06:29;;;;;;;25.48;12.25;;;7.70;99.90;;;;;;4791015;29;20043;-69
2022/11/18 09:08:55;;;;;;;22.33;11.45;;;7.70;99.90;;;;;;4790127;30;20050;-69
2022/11/18 09:11:24;;;;;;;20.75;10.48;;;7.70;99.90;;;;;;4791122;29;20070;-70
2022/11/18 09:13:58;;;;;;;19.80;10.77;;;7.60;99.90;;;;;;4791336;29;20051;-67
2022/11/18 09:16:25;;;;;;;22.52;10.77;;;7.50;99.90;;;;;;4791057;29;20050;-68
2022/11/18 09:18:51;;;;;;;18.42;10.57;;;7.60;99.90;;;;;;4791214;29;20122;-73
2022/11/18 09:21:18;;;;;;;22.35;9.70;;;7.60;99.90;;;;;;4791078;29;20080;-69
2022/11/18 09:23:44;;;;;;;22.80;11.25;;;7.60;99.90;;;;;;4791174;29;20079;-69
2022/11/18 09:26:12;;;;;;;24.85;10.95;;;7.50;99.90;;;;;;4790936;29;20039;-69
2022/11/18 09:28:38;;;;;;;22.75;11.80;;;7.50;99.90;;;;;;4791006;29;20126;-69
2022/11/18 09:31:06;;;;;;;22.42;11.70;;;7.50;99.90;;;;;;4790857;29;20117;-69
2022/11/18 09:33:33;;;;;;;25.63;12.07;;;7.60;99.90;;;;;;4790796;29;20055;-70
2022/11/18 09:35:59;;;;;;;28.30;12.75;;;7.60;99.90;;;;;;4791185;29;20057;-69
2022/11/18 09:38:27;;;;;;;24.05;12.35;;;7.50;99.90;;;;;;4775361;30;20384;-69
2022/11/18 09:41:11;;;;;;;26.90;12.20;;;7.60;99.90;;;;;;4790800;29;20059;-69
2022/11/18 09:44:01;;;;;;;28.25;13.00;;;7.50;99.90;;;;;;4791021;29;20139;-68
2022/11/18 09:46:48;;;;;;;28.63;12.43;;;7.50;99.90;;;;;;4790027;30;20035;-69
2022/11/18 09:49:29;;;;;;;24.25;11.38;;;7.30;99.90;;;;;;4791113;29;20079;-69
2022/11/18 09:51:57;;;;;;;21.73;10.90;;;7.30;99.90;;;;;;4790762;29;20460;-69
2022/11/18 09:54:26;;;;;;;26.70;12.65;;;7.40;99.90;;;;;;4790566;29;20126;-70
2022/11/18 09:56:54;;;;;;;26.80;11.68;;;7.50;99.90;;;;;;4791027;29;20051;-69
2022/11/18 09:59:29;;;;;;;28.45;12.13;;;7.50;99.90;;;;;;4789687;30;20086;-69
2022/11/18 10:02:02;;;;;;;24.27;11.48;;;7.60;99.90;;;;;;4789859;30;20043;-69
2022/11/18 10:04:28;;;;;;;25.10;11.80;;;7.60;99.90;;;;;;4774880;30;20059;-73
2022/11/18 10:06:54;;;;;;;23.88;11.15;;;7.60;99.90;;;;;;4790841;29;20363;-70
2022/11/18 10:09:26;;;;;;;22.65;11.63;;;7.70;99.90;;;;;;4790586;29;20059;-74
2022/11/18 10:12:13;;;;;;;25.80;12.45;;;7.30;99.90;;;;;;4791523;29;20055;-70
2022/11/18 10:14:59;;;;;;;29.27;12.90;;;7.30;99.90;;;;;;4793015;30;20047;-69
2022/11/18 10:17:38;;;;;;;27.13;12.93;;;7.30;99.90;;;;;;4792747;30;20051;-68
2022/11/18 10:20:25;;;;;;;32.60;14.23;;;7.30;99.90;;;;;;4793832;29;20062;-70
2022/11/18 10:22:55;;;;;;;34.25;14.77;;;7.30;99.90;;;;;;4793728;29;20043;-69
2022/11/18 10:25:21;;;;;;;26.92;14.52;;;7.60;99.90;;;;;;4793194;29;20039;-69
2022/11/18 10:27:48;;;;;;;36.28;14.77;;;7.60;99.90;;;;;;4793701;29;20039;-69
2022/11/18 10:30:21;;;;;;;37.15;16.73;;;7.60;99.90;;;;;;4792704;30;20146;-69
2022/11/18 10:32:54;;;;;;;28.80;15.18;;;7.60;99.90;;;;;;4793414;29;20396;-71
2022/11/18 10:35:38;;;;;;;34.25;16.83;;;7.60;99.90;;;;;;4793492;29;20062;-68
2022/11/18 10:38:16;;;;;;;38.88;16.55;;;7.70;99.90;;;;;;4793728;29;20043;-68
2022/11/18 10:41:01;;;;;;;35.33;16.13;;;7.70;99.90;;;;;;4793640;29;20083;-73
2022/11/18 10:43:55;;;;;;;44.75;18.10;;;7.50;99.90;;;;;;4793456;29;20043;-69
2022/11/18 10:46:38;;;;;;;38.33;17.73;;;7.30;99.90;;;;;;4793424;29;20326;-68
2022/11/18 10:49:09;;;;;;;37.72;16.55;;;7.20;99.90;;;;;;4792648;30;20131;-68
2022/11/18 10:51:39;;;;;;;42.30;16.88;;;7.20;99.90;;;;;;4793350;29;20356;-68
2022/11/18 10:54:14;;;;;;;41.85;19.23;;;7.20;99.90;;;;;;4793123;29;20039;-68
2022/11/18 10:56:50;;;;;;;39.65;16.70;;;7.20;99.90;;;;;;4793174;29;20058;-68
2022/11/18 10:59:22;;;;;;;39.00;15.50;;;7.10;99.90;;;;;;4792968;29;20387;-68
2022/11/18 11:02:09;;;;;;;34.47;17.20;;;7.20;99.90;;;;;;4793364;29;20082;-67
2022/11/18 11:04:36;;;;;;;44.10;19.75;;;7.20;99.90;;;;;;4792964;29;20430;-67
2022/11/18 11:07:24;;;;;;;47.85;20.42;;;7.20;99.90;;;;;;4792263;30;20047;-67
2022/11/18 11:10:01;;;;;;;51.85;21.48;;;7.20;99.90;;;;;;4793215;29;20380;-70
2022/11/18 11:12:30;;;;;;;58.13;23.77;;;7.20;99.90;;;;;;4793000;29;20055;-67
2022/11/18 11:14:59;;;;;;;55.35;22.10;;;7.10;99.90;;;;;;4792180;30;20378;-71
2022/11/18 11:17:37;;;;;;;56.15;22.70;;;6.80;99.90;;;;;;4792767;29;20122;-69
2022/11/18 11:20:12;;;;;;;56.30;22.88;;;6.80;99.90;;;;;;4792959;29;20047;-68
2022/11/18 11:22:38;;;;;;;59.25;23.45;;;6.80;99.90;;;;;;4792657;29;20043;-70
2022/11/18 11:25:24;;;;;;;48.00;21.13;;;6.90;99.90;;;;;;4791873;29;20050;-69
2022/11/18 11:27:59;;;;;;;52.17;21.92;;;6.80;99.90;;;;;;4792777;29;20338;-69
2022/11/18 11:30:25;;;;;;;47.00;21.15;;;6.90;99.90;;;;;;4792567;29;20051;-68
2022/11/18 11:33:04;;;;;;;48.33;20.77;;;6.90;99.90;;;;;;4806318;29;20450;-70
2022/11/18 11:35:45;;;;;;;59.88;23.92;;;6.90;99.90;;;;;;4792627;29;20058;-69
2022/11/18 11:38:29;;;;;;;49.70;20.45;;;7.00;99.90;;;;;;4791566;30;20067;-69
2022/11/18 11:41:16;;;;;;;45.47;19.83;;;7.00;99.90;;;;;;4792310;29;20199;-69
2022/11/18 11:44:14;;;;;;;44.05;19.65;;;6.90;99.90;;;;;;4792517;29;20057;-70
2022/11/18 11:50:22;;;;;;;41.20;17.95;;;6.80;99.90;;;;;;4792603;29;20093;-69
2022/11/18 11:53:12;;;;;;;49.67;19.95;;;6.90;99.90;;;;;;4790560;30;20044;-69
2022/11/18 11:55:47;;;;;;;40.53;18.50;;;6.70;99.90;;;;;;4790336;30;20055;-69
2022/11/18 11:58:38;;;;;;;52.65;20.40;;;6.70;99.90;;;;;;4792101;29;20090;-69
2022/11/18 12:01:09;;;;;;;46.25;19.67;;;6.90;99.90;;;;;;4792241;29;20330;-69
2022/11/18 12:04:06;;;;;;;43.53;17.90;;;6.70;99.90;;;;;;4791244;29;20342;-70
2022/11/18 12:06:31;;;;;;;40.80;17.08;;;6.70;99.90;;;;;;4789122;30;20354;-69
2022/11/18 12:09:26;;;;;;;40.05;17.40;;;6.80;99.90;;;;;;4771929;30;20039;-69
2022/11/18 12:11:59;;;;;;;37.53;16.92;;;6.60;99.90;;;;;;4795583;29;20047;-69
2022/11/18 12:14:36;;;;;;;40.15;16.95;;;6.50;99.90;;;;;;4789357;30;20302;-69
2022/11/18 12:17:18;;;;;;;34.40;16.48;;;6.50;99.90;;;;;;4781561;29;20045;-69
2022/11/18 12:19:43;;;;;;;33.75;16.25;;;6.50;99.90;;;;;;4791808;30;20062;-70
2022/11/18 12:22:09;;;;;;;33.97;16.27;;;6.50;99.90;;;;;;4776607;29;20044;-68
2022/11/18 12:24:37;;;;;;;38.83;17.67;;;6.50;99.90;;;;;;4777848;30;20051;-71
2022/11/18 12:27:13;;;;;;;43.38;17.17;;;6.60;99.90;;;;;;4791467;29;20059;-70
2022/11/18 12:29:42;;;;;;;;;;;6.50;99.90;;;;;;4782733;30;20165;-69
2022/11/18 12:32:33;;;;;;;35.15;16.45;;;6.40;99.90;;;;;;4786417;30;20025;-69
2022/11/18 12:35:04;;;;;;;43.72;16.40;;;6.30;99.90;;;;;;4772695;30;20063;-70
2022/11/18 12:37:30;;;;;;;34.38;15.73;;;6.40;99.90;;;;;;4782826;30;20062;-69
2022/11/18 12:39:57;;;;;;;36.65;16.42;;;6.50;99.90;;;;;;4791171;29;20369;-69
2022/11/18 12:45:53;;;;;;;37.30;16.30;;;6.60;99.90;;;;;;4791062;29;20058;-69
2022/11/18 12:48:35;;;;;;;34.20;15.23;;;6.60;99.90;;;;;;4790357;29;20050;-67
2022/11/18 12:51:10;;;;;;;35.80;15.85;;;6.60;99.90;;;;;;4773346;30;20054;-68
2022/11/18 12:53:42;;;;;;;32.38;15.18;;;6.50;99.90;;;;;;4773213;30;20055;-68
2022/11/18 12:56:17;;;;;;;33.40;15.88;;;6.40;99.90;;;;;;4786881;30;20074;-67
2022/11/18 12:58:58;;;;;;;36.13;15.30;;;6.50;99.90;;;;;;4780085;30;20055;-69
2022/11/18 13:01:34;;;;;;;36.88;15.68;;;6.50;99.90;;;;;;4789919;30;20054;-67
2022/11/18 13:04:18;;;;;;;38.55;16.33;;;6.50;99.90;;;;;;4791478;29;20122;-67
2022/11/18 13:06:44;;;;;;;38.53;17.48;;;6.30;99.90;;;;;;4791206;29;20066;-67
2022/11/18 13:09:29;;;;;;;43.83;19.40;;;6.30;99.90;;;;;;4791367;29;20109;-67
2022/11/18 13:12:02;;;;;;;46.05;18.75;;;6.20;99.90;;;;;;4791123;29;20047;-67
2022/11/18 13:17:53;;;;;;;53.67;22.33;;;6.00;99.90;;;;;;4791193;29;20466;-67
2022/11/18 13:20:32;;;;;;;49.47;19.80;;;6.00;99.90;;;;;;4790025;30;20423;-67